Time;durP1;ratioP1;P1;durP2;ratioP2;P2;SDS_P1;SDS_P2;PMS_P1;PMS_P2;Temp;Humidity;BMP_temperature;BMP_pressure;BME280_temperature;BME280_humidity;BME280_pressure;Samples;Min_cycle;Max_cycle;Signal;HPM_P1;HPM_P2
2023/12/03 00:00:27;;;;;;;;;18.00;17.25;;;;;19.85;39.33;101815.03;4976138;28;45409;-72
2023/12/03 00:02:53;;;;;;;;;5.00;3.00;;;;;19.90;39.19;101819.91;4977396;28;45385;-69
2023/12/03 00:05:19;;;;;;;;;18.50;18.00;;;;;19.90;39.04;101819.91;4977008;28;45561;-69
2023/12/03 00:07:45;;;;;;;;;18.25;18.25;;;;;19.91;39.00;101818.94;4977103;28;47106;-70
2023/12/03 00:10:10;;;;;;;;;21.75;18.75;;;;;19.91;38.92;101818.94;4976122;28;45350;-70
2023/12/03 00:12:38;;;;;;;;;21.25;19.25;;;;;19.90;39.04;101819.91;4976540;28;45413;-70
2023/12/03 00:15:05;;;;;;;;;19.25;16.75;;;;;19.89;39.49;101826.16;4970405;28;45493;-70
2023/12/03 00:17:30;;;;;;;;;20.00;18.00;;;;;19.90;39.06;101819.91;4977133;28;45472;-70
2023/12/03 00:19:55;;;;;;;;;18.25;18.25;;;;;19.88;38.93;101816.56;4971597;28;45456;-70
2023/12/03 00:22:21;;;;;;;;;4.25;3.25;;;;;19.87;38.97;101812.28;4977407;28;45362;-70
2023/12/03 00:24:46;;;;;;;;;20.50;19.00;;;;;19.88;39.08;101806.00;4966350;28;45859;-69
2023/12/03 00:27:11;;;;;;;;;20.50;18.75;;;;;19.87;39.12;101808.78;4973770;28;47042;-70
2023/12/03 00:29:37;;;;;;;;;17.75;17.00;;;;;19.85;38.88;101796.56;4974982;28;45901;-70
2023/12/03 00:32:02;;;;;;;;;20.25;18.75;;;;;19.73;39.02;101773.94;4976915;28;45361;-69
2023/12/03 00:34:28;;;;;;;;;18.25;17.50;;;;;19.77;39.31;101783.25;4974505;28;45595;-69
2023/12/03 00:36:54;;;;;;;;;17.25;17.25;;;;;19.76;39.19;101778.94;4975541;28;47358;-69
2023/12/03 00:39:19;;;;;;;;;19.25;16.75;;;;;19.84;38.84;101794.06;4976102;28;45417;-69
2023/12/03 00:41:45;;;;;;;;;19.50;16.50;;;;;19.82;39.07;101780.19;4976267;28;52143;-69
2023/12/03 00:44:10;;;;;;;;;20.25;19.25;;;;;19.85;39.27;101790.47;4989355;28;45386;-70
2023/12/03 00:46:35;;;;;;;;;18.50;17.75;;;;;19.85;39.03;101787.81;4967189;28;45956;-69
2023/12/03 00:49:01;;;;;;;;;18.75;18.75;;;;;19.84;39.00;101794.91;4991564;28;45289;-70
2023/12/03 00:51:26;;;;;;;;;15.50;14.75;;;;;19.84;38.80;101796.72;4971498;28;52814;-70
2023/12/03 00:53:51;;;;;;;;;19.00;16.25;;;;;19.83;38.82;101792.38;4973766;28;45205;-70
2023/12/03 00:56:17;;;;;;;;;18.00;15.75;;;;;19.82;39.05;101790.75;4975978;28;46160;-70
2023/12/03 00:58:42;;;;;;;;;15.50;15.50;;;;;19.83;39.07;101785.31;4966880;28;45680;-69
2023/12/03 01:01:07;;;;;;;;;17.50;15.00;;;;;19.82;39.19;101780.19;4967626;28;45415;-73
2023/12/03 01:03:32;;;;;;;;;15.50;15.00;;;;;19.75;38.74;101760.59;4976481;28;45366;-69
2023/12/03 01:05:58;;;;;;;;;17.75;15.50;;;;;19.84;38.91;101783.50;4975576;28;67167;-68
2023/12/03 01:08:23;;;;;;;;;20.00;17.75;;;;;19.80;38.98;101774.22;4975824;28;59983;-75
2023/12/03 01:10:49;;;;;;;;;18.25;16.25;;;;;19.84;38.57;101779.06;4976204;28;45294;-74
2023/12/03 01:13:14;;;;;;;;;15.75;15.25;;;;;19.79;38.62;101770.72;4975706;28;45434;-74
2023/12/03 01:15:39;;;;;;;;;19.75;17.00;;;;;19.75;38.85;101769.34;4976017;28;45354;-73
2023/12/03 01:18:05;;;;;;;;;16.00;14.25;;;;;19.82;38.74;101775.75;4976676;28;46649;-74
2023/12/03 01:20:30;;;;;;;;;13.50;13.50;;;;;19.77;38.52;101763.94;4976830;28;45444;-74
2023/12/03 01:22:55;;;;;;;;;14.75;14.75;;;;;19.78;38.12;101774.34;4976949;28;45420;-73
2023/12/03 01:25:21;;;;;;;;;16.00;15.75;;;;;19.79;38.51;101777.81;4976506;28;46044;-72
2023/12/03 01:27:47;;;;;;;;;18.00;16.75;;;;;19.79;38.07;101775.16;4976313;28;45494;-73
2023/12/03 01:30:12;;;;;;;;;16.75;14.75;;;;;19.71;38.28;101776.72;4976842;28;45534;-74
2023/12/03 01:32:38;;;;;;;;;14.00;13.00;;;;;19.66;38.38;101765.75;4976447;28;45405;-73
2023/12/03 01:35:04;;;;;;;;;15.25;12.00;;;;;19.72;37.92;101782.84;4976349;28;46180;-72
2023/12/03 01:37:29;;;;;;;;;19.25;15.75;;;;;19.72;37.78;101781.00;4976383;28;45430;-74
2023/12/03 01:39:55;;;;;;;;;6.50;5.50;;;;;19.74;38.08;101783.53;4976610;28;45298;-74
2023/12/03 01:42:20;;;;;;;;;17.75;16.25;;;;;19.65;38.06;101766.72;4970512;28;45282;-74
2023/12/03 01:44:45;;;;;;;;;19.25;16.25;;;;;19.54;37.90;101745.78;4961142;28;45996;-74
2023/12/03 01:47:13;;;;;;;;;13.50;13.50;;;;;19.71;37.66;101776.72;4976489;28;45409;-73
2023/12/03 01:49:39;;;;;;;;;18.00;16.50;;;;;19.61;37.84;101755.63;4976271;28;45338;-74
2023/12/03 01:52:05;;;;;;;;;18.50;16.00;;;;;19.69;38.00;101770.75;4975196;28;45350;-73
2023/12/03 01:54:35;;;;;;;;;11.50;11.50;;;;;19.69;37.95;101765.47;4961160;28;47105;-73
2023/12/03 01:57:01;;;;;;;;;17.25;16.00;;;;;19.68;37.81;101761.16;4956364;28;45346;-72
2023/12/03 01:59:26;;;;;;;;;13.75;13.75;;;;;19.69;37.60;101754.06;4956802;28;45354;-74
2023/12/03 02:01:51;;;;;;;;;18.50;15.75;;;;;19.58;37.56;101745.34;4956732;28;45470;-72
2023/12/03 02:04:17;;;;;;;;;17.25;15.00;;;;;19.68;37.71;101755.03;4956707;28;46233;-74
2023/12/03 02:06:42;;;;;;;;;13.75;13.50;;;;;19.68;37.87;101757.69;4956772;28;45231;-73
2023/12/03 02:09:07;;;;;;;;;14.75;12.75;;;;;19.59;37.57;101744.38;4956894;28;45195;-73
2023/12/03 02:11:33;;;;;;;;;15.75;15.25;;;;;19.67;37.79;101750.75;4956667;28;45358;-73
2023/12/03 02:14:00;;;;;;;;;9.75;9.25;;;;;19.64;37.88;101754.50;4956463;28;47651;-73
2023/12/03 02:16:25;;;;;;;;;15.00;13.75;;;;;19.63;37.77;101750.19;4956638;28;45389;-73
2023/12/03 02:18:50;;;;;;;;;14.75;13.00;;;;;19.64;37.90;101754.50;4956578;28;45381;-73
2023/12/03 02:21:16;;;;;;;;;14.25;13.75;;;;;19.65;37.92;101750.06;4956603;28;45378;-72
2023/12/03 02:23:41;;;;;;;;;17.25;15.25;;;;;19.62;37.93;101754.63;4956435;28;46141;-74
2023/12/03 02:26:07;;;;;;;;;14.75;13.75;;;;;19.61;37.85;101754.78;4956336;28;45369;-73
2023/12/03 02:28:32;;;;;;;;;15.25;13.25;;;;;19.57;38.00;101750.78;4958394;28;45447;-73
2023/12/03 02:30:58;;;;;;;;;13.50;13.50;;;;;19.64;37.77;101764.22;4960022;28;45306;-73
2023/12/03 02:33:23;;;;;;;;;16.00;15.25;;;;;19.51;37.91;101745.09;4959710;28;46153;-74
2023/12/03 02:35:49;;;;;;;;;17.75;16.75;;;;;19.37;37.95;101725.22;4969856;28;45375;-74
2023/12/03 02:38:14;;;;;;;;;13.75;13.75;;;;;19.53;37.80;101752.00;4979439;28;45414;-73
2023/12/03 02:40:39;;;;;;;;;18.00;15.50;;;;;19.63;37.80;101766.03;4979018;28;45404;-74
2023/12/03 02:43:05;;;;;;;;;16.00;14.00;;;;;19.59;38.05;101749.66;4978941;28;45341;-73
2023/12/03 02:45:30;;;;;;;;;17.50;16.00;;;;;19.61;37.66;101758.25;4979085;28;45349;-73
2023/12/03 02:47:55;;;;;;;;;13.00;11.50;;;;;19.56;37.65;101742.00;4979267;28;45385;-72
2023/12/03 02:50:21;;;;;;;;;15.00;12.50;;;;;19.62;37.72;101744.06;4979106;28;45524;-73
2023/12/03 02:52:46;;;;;;;;;14.25;14.00;;;;;19.62;38.00;101751.19;4979053;28;47044;-73
2023/12/03 02:55:11;;;;;;;;;13.25;12.50;;;;;19.63;37.69;101750.19;4978206;28;56191;-73
2023/12/03 02:57:37;;;;;;;;;10.50;10.50;;;;;19.59;37.65;101747.00;4979212;28;45459;-74
2023/12/03 03:00:04;;;;;;;;;14.00;13.50;;;;;19.60;37.86;101747.81;4979191;28;45357;-73
2023/12/03 03:02:29;;;;;;;;;15.50;12.00;;;;;19.56;37.76;101736.72;4978729;28;47101;-73
2023/12/03 03:04:55;;;;;;;;;16.50;13.25;;;;;19.50;37.58;101717.00;4978794;28;45376;-74
2023/12/03 03:07:20;;;;;;;;;13.00;12.00;;;;;19.56;37.70;101727.97;4979053;28;45402;-73
2023/12/03 03:09:45;;;;;;;;;13.50;13.50;;;;;19.52;37.50;101708.94;4978684;28;45463;-74
2023/12/03 03:12:11;;;;;;;;;12.50;12.50;;;;;19.58;37.48;101718.09;4978755;28;46112;-74
2023/12/03 03:14:36;;;;;;;;;14.00;13.75;;;;;19.60;37.63;101718.78;4978062;28;59845;-73
2023/12/03 03:17:01;;;;;;;;;12.75;12.00;;;;;19.59;37.47;101715.34;4978875;28;45468;-74
2023/12/03 03:19:27;;;;;;;;;14.50;14.50;;;;;19.53;37.68;101718.53;4978722;28;45284;-73
2023/12/03 03:21:52;;;;;;;;;14.50;13.00;;;;;19.59;37.61;101711.84;4978464;28;46001;-72
2023/12/03 03:24:17;;;;;;;;;15.00;13.00;;;;;19.47;37.88;101703.25;4978162;28;47428;-73
2023/12/03 03:26:43;;;;;;;;;11.50;11.50;;;;;19.53;37.54;101715.91;4978766;28;45272;-73
2023/12/03 03:29:08;;;;;;;;;15.75;13.00;;;;;19.55;37.71;101721.03;4978575;28;45401;-73
2023/12/03 03:31:33;;;;;;;;;14.25;14.25;;;;;19.58;37.63;101726.03;4978523;28;45973;-72
2023/12/03 03:33:59;;;;;;;;;14.00;12.75;;;;;19.58;37.58;101724.22;4978255;28;45415;-73
2023/12/03 03:36:24;;;;;;;;;16.75;14.25;;;;;19.55;37.59;101723.66;4978393;28;45465;-73
2023/12/03 03:38:50;;;;;;;;;15.00;13.75;;;;;19.53;37.81;101715.91;4977599;28;45493;-73
2023/12/03 03:41:15;;;;;;;;;11.00;11.00;;;;;19.57;37.69;101721.72;4978082;28;45450;-73
2023/12/03 03:43:40;;;;;;;;;14.25;14.00;;;;;19.55;37.70;101710.47;4978324;28;45282;-73
2023/12/03 03:46:06;;;;;;;;;15.00;12.00;;;;;19.57;37.68;101713.81;4978368;28;45275;-73
2023/12/03 03:48:31;;;;;;;;;13.00;10.75;;;;;19.55;37.75;101713.09;4978307;28;45317;-73
2023/12/03 03:50:56;;;;;;;;;11.75;11.75;;;;;19.55;37.79;101710.47;4978179;28;45907;-73
2023/12/03 03:53:22;;;;;;;;;13.00;12.00;;;;;19.57;37.49;101708.53;4976649;28;45284;-73
2023/12/03 03:55:47;;;;;;;;;13.25;13.25;;;;;19.57;37.51;101708.53;4978155;28;45457;-73
2023/12/03 03:58:13;;;;;;;;;13.00;12.75;;;;;19.50;37.43;101693.25;4978277;28;45203;-73
2023/12/03 04:00:38;;;;;;;;;14.75;12.25;;;;;19.57;37.53;101703.25;4978019;28;46335;-73
2023/12/03 04:03:04;;;;;;;;;14.50;12.50;;;;;19.56;37.45;101699.78;4978147;28;45284;-73
2023/12/03 04:05:29;;;;;;;;;15.25;14.25;;;;;19.56;37.45;101693.66;4978157;28;45294;-73
2023/12/03 04:07:54;;;;;;;;;11.50;11.50;;;;;19.50;37.52;101689.78;4977813;28;45483;-73
2023/12/03 04:10:21;;;;;;;;;11.75;11.75;;;;;19.56;37.60;101696.31;4977843;28;47112;-74
2023/12/03 04:12:47;;;;;;;;;12.00;10.50;;;;;19.49;37.62;101685.50;4977966;28;45499;-73
2023/12/03 04:15:13;;;;;;;;;14.00;13.00;;;;;19.38;37.50;101671.47;4977972;28;45364;-73
2023/12/03 04:17:38;;;;;;;;;12.25;11.00;;;;;19.53;37.54;101686.03;4977843;28;45472;-73
2023/12/03 04:20:04;;;;;;;;;13.00;12.50;;;;;19.55;37.47;101698.09;4977810;28;45412;-73
2023/12/03 04:22:29;;;;;;;;;15.50;12.75;;;;;19.45;37.39;101682.28;4977413;28;45415;-73
2023/12/03 04:24:54;;;;;;;;;10.50;10.50;;;;;19.54;37.33;101695.63;4977971;28;45400;-73
2023/12/03 04:27:20;;;;;;;;;10.50;10.50;;;;;19.53;37.59;101678.94;4977874;28;45472;-73
2023/12/03 04:29:45;;;;;;;;;16.00;13.00;;;;;19.54;37.31;101680.63;4977598;28;45446;-73
2023/12/03 04:32:11;;;;;;;;;12.25;11.75;;;;;19.53;37.44;101684.22;4977308;28;45507;-72
2023/12/03 04:34:39;;;;;;;;;13.75;11.50;;;;;19.50;37.36;101680.06;4977246;28;45502;-73
2023/12/03 04:37:05;;;;;;;;;13.25;11.00;;;;;19.39;37.70;101648.53;4977714;28;45473;-73
2023/12/03 04:39:30;;;;;;;;;12.75;11.00;;;;;19.47;37.31;101658.38;4977525;28;46005;-73
2023/12/03 04:41:55;;;;;;;;;12.25;11.75;;;;;19.53;36.77;101681.56;4977203;28;45267;-73
2023/12/03 04:44:21;;;;;;;;;10.25;9.50;;;;;19.51;37.20;101673.81;4977516;28;45316;-72
2023/12/03 04:46:46;;;;;;;;;13.00;11.00;;;;;19.51;37.35;101668.53;4977493;28;45464;-73
2023/12/03 04:49:11;;;;;;;;;11.25;10.25;;;;;19.49;37.56;101670.47;4991946;28;48596;-73
2023/12/03 04:51:37;;;;;;;;;11.00;9.25;;;;;19.50;37.61;101674.78;4976395;28;45372;-73
2023/12/03 04:54:02;;;;;;;;;11.25;11.25;;;;;19.50;37.37;101673.94;4977404;28;45384;-73
2023/12/03 04:56:27;;;;;;;;;13.00;11.00;;;;;19.50;37.60;101666.84;4977349;28;45365;-73
2023/12/03 04:58:53;;;;;;;;;13.75;11.75;;;;;19.53;37.35;101656.97;4976737;28;57984;-73
2023/12/03 05:01:18;;;;;;;;;9.50;9.00;;;;;19.50;37.37;101652.81;4977269;28;45455;-73
2023/12/03 05:03:45;;;;;;;;;10.75;10.75;;;;;19.50;37.54;101645.75;4976827;28;45274;-73
2023/12/03 05:06:11;;;;;;;;;13.75;12.50;;;;;19.51;37.53;101643.94;4977187;28;45451;-73
2023/12/03 05:08:36;;;;;;;;;12.75;12.25;;;;;19.46;37.39;101643.53;4976845;28;45369;-73
2023/12/03 05:11:05;;;;;;;;;10.50;10.00;;;;;19.51;37.34;101643.94;4992164;28;45341;-73
2023/12/03 05:13:32;;;;;;;;;13.50;10.50;;;;;19.49;36.72;101636.16;4977044;28;45319;-73
2023/12/03 05:15:57;;;;;;;;;13.00;13.00;;;;;19.50;37.45;101629.91;4976853;28;45428;-73
2023/12/03 05:18:23;;;;;;;;;12.50;10.75;;;;;19.51;37.31;101630.75;4976426;28;45375;-73
2023/12/03 05:20:49;;;;;;;;;11.25;10.50;;;;;19.51;37.36;101625.47;4976834;28;48592;-73
2023/12/03 05:23:15;;;;;;;;;10.25;10.00;;;;;19.48;37.47;101628.38;4976998;28;45364;-73
2023/12/03 05:25:40;;;;;;;;;11.75;11.75;;;;;19.46;37.42;101615.34;4976862;28;45341;-73
2023/12/03 05:28:05;;;;;;;;;13.50;13.00;;;;;19.51;37.28;101634.22;4976780;28;45278;-73
2023/12/03 05:30:31;;;;;;;;;14.00;12.00;;;;;19.48;37.45;101616.03;4976592;28;45420;-73
2023/12/03 05:32:57;;;;;;;;;13.00;9.25;;;;;19.51;37.46;101631.59;4976264;28;45419;-73
2023/12/03 05:35:23;;;;;;;;;9.75;9.75;;;;;19.43;37.47;101596.31;4976578;28;45589;-73
2023/12/03 05:37:48;;;;;;;;;8.25;7.75;;;;;19.50;37.35;101610.59;4976449;28;46950;-73
2023/12/03 05:40:14;;;;;;;;;12.50;9.75;;;;;19.49;37.53;101615.03;4976494;28;45394;-74
2023/12/03 05:42:39;;;;;;;;;11.25;10.25;;;;;19.36;37.16;101580.25;4976437;28;45403;-73
2023/12/03 05:45:05;;;;;;;;;13.00;10.75;;;;;19.48;37.36;101600.19;4976662;28;45379;-73
2023/12/03 05:47:31;;;;;;;;;13.50;11.50;;;;;19.47;37.30;101597.69;4976118;28;46455;-73
2023/12/03 05:50:00;;;;;;;;;11.00;10.75;;;;;19.49;37.52;101603.66;4976304;28;45272;-73
2023/12/03 05:52:25;;;;;;;;;12.75;11.00;;;;;19.45;37.24;101589.06;4976541;28;45373;-73
2023/12/03 05:54:50;;;;;;;;;12.00;10.75;;;;;19.37;37.28;101590.63;4976440;28;45286;-73
2023/12/03 05:57:16;;;;;;;;;12.00;11.50;;;;;19.47;37.52;101595.88;4976366;28;46098;-73
2023/12/03 05:59:41;;;;;;;;;13.00;12.00;;;;;19.43;37.48;101591.03;4976439;28;45325;-73
2023/12/03 06:02:06;;;;;;;;;6.50;5.00;;;;;19.48;37.50;101591.44;4975801;28;46887;-73
2023/12/03 06:04:31;;;;;;;;;11.00;11.00;;;;;19.45;37.58;101583.81;4976443;28;45407;-73
2023/12/03 06:06:57;;;;;;;;;9.25;9.25;;;;;19.49;37.48;101582.56;4991229;28;47197;-73
2023/12/03 06:09:22;;;;;;;;;10.00;9.00;;;;;19.47;37.33;101582.69;4976098;28;45319;-74
2023/12/03 06:11:47;;;;;;;;;9.50;9.50;;;;;19.44;37.54;101580.31;4975891;28;51648;-73
2023/12/03 06:14:13;;;;;;;;;9.75;9.75;;;;;19.46;37.12;101570.47;4974677;28;48917;-73
2023/12/03 06:16:38;;;;;;;;;9.50;8.25;;;;;19.48;37.17;101578.25;4975722;28;49751;-73
2023/12/03 06:19:03;;;;;;;;;11.25;10.50;;;;;19.48;37.41;101573.81;4975955;28;49799;-73
2023/12/03 06:21:29;;;;;;;;;9.75;9.75;;;;;19.46;37.40;101567.00;4976219;28;45175;-74
2023/12/03 06:23:54;;;;;;;;;12.75;9.25;;;;;19.48;37.27;101568.53;4976071;28;45306;-73
2023/12/03 06:26:20;;;;;;;;;10.00;10.00;;;;;19.37;37.17;101539.66;4975962;28;46032;-73
2023/12/03 06:28:46;;;;;;;;;11.00;11.00;;;;;19.42;37.24;101541.84;4976008;28;45448;-73
2023/12/03 06:31:12;;;;;;;;;11.25;11.25;;;;;19.38;37.42;101536.91;4975687;28;45473;-73
2023/12/03 06:33:38;;;;;;;;;10.00;10.00;;;;;19.47;37.06;101561.56;4975820;28;45388;-73
2023/12/03 06:36:04;;;;;;;;;10.75;9.00;;;;;19.44;37.01;101556.56;4975603;28;45624;-73
2023/12/03 06:38:29;;;;;;;;;11.75;8.75;;;;;19.43;37.42;101560.19;4975808;28;45511;-73
2023/12/03 06:40:55;;;;;;;;;9.50;9.00;;;;;19.46;37.11;101564.38;4975985;28;45354;-73
2023/12/03 06:43:20;;;;;;;;;11.00;7.75;;;;;19.39;37.07;101553.53;4975760;28;45437;-73
2023/12/03 06:45:45;;;;;;;;;9.00;8.25;;;;;19.45;37.00;101563.53;4990502;28;46190;-73
2023/12/03 06:48:11;;;;;;;;;11.50;9.75;;;;;19.44;37.25;101568.97;4975757;28;45355;-73
2023/12/03 06:50:36;;;;;;;;;5.75;5.75;;;;;19.47;37.20;101572.13;4991012;28;45462;-73
2023/12/03 06:53:02;;;;;;;;;10.75;10.00;;;;;19.46;37.50;101567.84;4975439;28;51961;-73
2023/12/03 06:55:27;;;;;;;;;10.50;10.50;;;;;19.46;37.20;101569.66;4975555;28;46027;-73
2023/12/03 06:57:53;;;;;;;;;10.25;9.25;;;;;19.46;37.07;101567.84;4975648;28;45400;-73
2023/12/03 07:00:19;;;;;;;;;11.75;9.00;;;;;19.47;37.21;101579.19;4975308;28;45349;-73
2023/12/03 07:02:45;;;;;;;;;9.25;9.00;;;;;19.38;37.29;101559.81;4975701;28;45480;-73
2023/12/03 07:05:10;;;;;;;;;9.50;8.00;;;;;19.46;37.23;101561.72;4975021;28;53719;-73
2023/12/03 07:07:36;;;;;;;;;13.75;12.00;;;;;19.45;37.22;101565.31;4975504;28;45456;-73
2023/12/03 07:10:02;;;;;;;;;13.00;10.25;;;;;19.40;37.41;101550.78;4975589;28;45388;-73
2023/12/03 07:12:28;;;;;;;;;10.25;7.50;;;;;19.44;37.20;101550.47;4975450;28;45380;-73
2023/12/03 07:14:53;;;;;;;;;10.00;9.25;;;;;19.46;37.34;101556.44;4992184;28;46245;-74
2023/12/03 07:17:18;;;;;;;;;11.25;9.00;;;;;19.35;37.18;101537.19;4978270;28;55724;-73
2023/12/03 07:19:45;;;;;;;;;11.50;11.50;;;;;19.37;37.31;101537.03;4978586;28;45518;-73
2023/12/03 07:22:10;;;;;;;;;13.00;9.25;;;;;19.44;37.01;101550.47;4978800;28;45308;-73
2023/12/03 07:24:37;;;;;;;;;10.00;9.75;;;;;19.46;37.27;101551.16;4978460;28;45531;-73
2023/12/03 07:27:02;;;;;;;;;9.00;9.00;;;;;19.45;37.26;101552.97;4978641;28;45373;-73
2023/12/03 07:29:27;;;;;;;;;11.50;7.75;;;;;19.45;37.20;101550.31;4978249;28;45305;-73
2023/12/03 07:31:53;;;;;;;;;8.25;8.25;;;;;19.44;36.95;101548.66;4978437;28;46566;-73
2023/12/03 07:34:18;;;;;;;;;9.75;8.50;;;;;19.44;37.32;101548.66;4978227;28;46178;-73
2023/12/03 07:36:44;;;;;;;;;8.75;8.75;;;;;19.45;37.00;101541.56;4977612;28;63058;-73
2023/12/03 07:39:09;;;;;;;;;10.00;8.50;;;;;19.18;37.04;101513.22;4978463;28;45238;-74
2023/12/03 07:41:34;;;;;;;;;11.00;10.00;;;;;19.44;36.90;101550.47;4977819;28;53498;-73
2023/12/03 07:43:59;;;;;;;;;13.00;10.00;;;;;19.44;37.06;101550.47;4977263;28;65277;-73
2023/12/03 07:46:25;;;;;;;;;8.25;8.25;;;;;19.44;36.92;101556.56;4978139;28;52396;-73
2023/12/03 07:48:50;;;;;;;;;9.75;8.75;;;;;19.45;36.89;101554.78;4978353;28;45355;-73
2023/12/03 07:51:15;;;;;;;;;11.50;9.25;;;;;19.45;36.87;101552.13;4977971;28;50431;-73
2023/12/03 07:53:41;;;;;;;;;9.00;8.25;;;;;19.45;36.92;101552.97;4978090;28;45920;-73
2023/12/03 07:56:07;;;;;;;;;11.00;9.50;;;;;19.38;37.05;101547.44;4978175;28;45396;-73
2023/12/03 07:58:34;;;;;;;;;8.50;8.25;;;;;19.45;37.10;101552.97;4977829;28;45353;-73
2023/12/03 08:01:00;;;;;;;;;8.25;8.25;;;;;19.43;37.07;101554.94;4978104;28;45417;-73
2023/12/03 08:03:25;;;;;;;;;11.25;9.50;;;;;19.46;37.06;101559.09;4977679;28;46368;-73
2023/12/03 08:05:51;;;;;;;;;8.25;7.00;;;;;19.47;37.26;101552.81;4977855;28;45376;-73
2023/12/03 08:08:16;;;;;;;;;8.00;7.00;;;;;19.39;37.15;101543.81;4977986;28;45455;-73
2023/12/03 08:10:42;;;;;;;;;9.50;8.00;;;;;19.39;37.34;101546.47;4976691;28;45463;-73
2023/12/03 08:13:07;;;;;;;;;9.50;8.00;;;;;19.47;37.27;101555.44;4977476;28;47586;-73
2023/12/03 08:15:32;;;;;;;;;7.00;7.00;;;;;19.46;36.94;101552.00;4976102;28;54381;-72
2023/12/03 08:17:57;;;;;;;;;10.75;9.25;;;;;19.42;37.44;101558.53;4977475;28;54016;-73
2023/12/03 08:20:23;;;;;;;;;8.00;8.00;;;;;19.41;37.30;101551.59;4977344;28;58250;-73
2023/12/03 08:22:48;;;;;;;;;8.25;7.50;;;;;19.47;37.19;101574.75;4977573;28;50738;-73
2023/12/03 08:25:14;;;;;;;;;8.50;6.50;;;;;19.47;37.33;101584.47;4976076;28;55284;-73
2023/12/03 08:27:40;;;;;;;;;10.00;8.33;;;;;19.43;37.16;101599.78;4977515;28;45392;-73
2023/12/03 08:30:06;;;;;;;;;6.33;5.00;;;;;19.45;37.20;101605.75;4977764;28;45366;-73
2023/12/03 08:32:32;;;;;;;;;9.50;7.00;;;;;19.38;37.31;101592.31;4977619;28;46290;-72
2023/12/03 08:34:57;;;;;;;;;9.75;8.00;;;;;19.41;37.43;101578.00;4977325;28;45401;-73
2023/12/03 08:37:22;;;;;;;;;6.33;6.33;;;;;19.44;37.36;101577.69;4977688;28;45389;-73
2023/12/03 08:39:48;;;;;;;;;6.00;6.00;;;;;19.45;37.23;101568.81;4977356;28;45467;-73
2023/12/03 08:42:15;;;;;;;;;9.25;7.75;;;;;19.45;37.29;101571.44;4976774;28;46090;-73
2023/12/03 08:44:40;;;;;;;;;8.50;8.50;;;;;19.35;36.90;101560.94;4977370;28;45381;-73
2023/12/03 08:47:05;;;;;;;;;12.50;8.75;;;;;19.45;37.10;101567.97;4977145;28;50102;-73
2023/12/03 08:49:31;;;;;;;;;3.00;3.00;;;;;19.39;37.04;101559.66;4977345;28;45425;-73
2023/12/03 08:51:56;;;;;;;;;8.00;8.00;;;;;19.44;37.05;101569.78;4977287;28;45265;-73
2023/12/03 08:54:22;;;;;;;;;9.75;6.00;;;;;19.46;37.42;101569.66;4977363;28;45357;-72
2023/12/03 08:56:47;;;;;;;;;8.00;8.00;;;;;19.43;37.02;101568.13;4977114;28;45233;-73
2023/12/03 08:59:12;;;;;;;;;8.25;8.00;;;;;19.43;37.28;101565.47;4977109;28;50860;-73
2023/12/03 09:01:41;;;;;;;;;11.00;8.00;;;;;19.43;36.92;101560.19;4977217;28;45326;-74
2023/12/03 09:04:06;;;;;;;;;8.25;8.25;;;;;19.43;37.17;101568.13;4977364;28;45455;-73
2023/12/03 09:06:31;;;;;;;;;5.75;5.75;;;;;19.43;37.18;101572.56;4977338;28;45544;-73
2023/12/03 09:08:57;;;;;;;;;7.00;7.00;;;;;19.43;37.34;101565.47;4977612;28;45449;-73
2023/12/03 09:11:23;;;;;;;;;7.00;6.75;;;;;19.43;37.20;101576.03;4976982;28;58097;-73
2023/12/03 09:13:48;;;;;;;;;8.75;8.75;;;;;19.44;37.37;101574.25;4977201;28;45503;-74
2023/12/03 09:16:14;;;;;;;;;8.75;8.00;;;;;19.45;37.51;101566.16;4977178;28;45861;-74
2023/12/03 09:18:39;;;;;;;;;8.00;6.75;;;;;19.45;37.03;101571.44;4977241;28;45374;-74
2023/12/03 09:21:07;;;;;;;;;6.75;6.50;;;;;19.43;37.25;101568.13;4976853;28;47101;-73
2023/12/03 09:23:33;;;;;;;;;8.50;7.50;;;;;19.37;37.18;101551.06;4992057;28;45866;-74
2023/12/03 09:26:00;;;;;;;;;7.50;7.50;;;;;19.44;37.54;101566.31;4976495;28;45190;-73
2023/12/03 09:28:25;;;;;;;;;8.00;6.50;;;;;19.44;37.48;101563.69;4976789;28;45603;-76
2023/12/03 09:30:50;;;;;;;;;6.50;6.00;;;;;19.45;37.31;101562.69;4976698;28;45974;-72
2023/12/03 09:33:16;;;;;;;;;7.00;6.75;;;;;19.36;37.26;101549.38;4976011;28;59275;-74
2023/12/03 09:35:41;;;;;;;;;7.25;7.25;;;;;19.44;37.37;101558.41;4975167;28;52262;-75
2023/12/03 09:38:06;;;;;;;;;6.25;6.25;;;;;19.43;37.60;101557.56;4976250;28;45381;-74
2023/12/03 09:40:33;;;;;;;;;8.00;6.00;;;;;19.35;37.85;101550.38;4975789;28;54214;-75
2023/12/03 09:43:04;;;;;;;;;7.25;7.25;;;;;19.43;37.73;101554.09;4976480;28;45265;-74
2023/12/03 09:45:31;;;;;;;;;11.25;6.50;;;;;19.45;38.02;101563.53;4991275;28;45278;-75
2023/12/03 09:48:00;;;;;;;;;7.50;7.00;;;;;19.44;37.88;101550.47;4976031;28;45393;-75
2023/12/03 09:50:27;;;;;;;;;6.75;6.75;;;;;19.32;38.18;101534.00;4976410;28;46099;-73
2023/12/03 09:52:54;;;;;;;;;7.50;7.25;;;;;19.46;37.99;101553.81;4976330;28;45438;-72
2023/12/03 09:55:23;;;;;;;;;9.00;8.00;;;;;19.40;38.26;101561.31;4991106;28;45291;-75
2023/12/03 09:57:53;;;;;;;;;5.00;5.00;;;;;19.43;38.27;101557.56;4976318;28;45329;-74
2023/12/03 10:00:19;;;;;;;;;7.50;7.25;;;;;19.36;37.77;101552.00;4976184;28;46255;-74
2023/12/03 10:02:47;;;;;;;;;6.25;6.00;;;;;19.45;38.32;101560.88;4976319;28;45310;-74
2023/12/03 10:05:12;;;;;;;;;7.25;7.00;;;;;19.32;38.32;101534.00;4976331;28;45528;-75
2023/12/03 10:07:38;;;;;;;;;7.75;6.50;;;;;19.40;38.54;101549.94;4976132;28;45361;-74
2023/12/03 10:10:06;;;;;;;;;7.25;7.25;;;;;19.37;38.36;101556.34;4975421;28;60355;-74
2023/12/03 10:12:42;;;;;;;;;6.75;6.25;;;;;19.43;38.25;101554.09;4976308;28;45496;-75
2023/12/03 10:15:09;;;;;;;;;6.00;6.00;;;;;19.45;38.38;101560.88;4976260;28;45291;-75
2023/12/03 10:17:35;;;;;;;;;7.00;6.00;;;;;19.39;38.61;101546.47;4976172;28;45257;-74
2023/12/03 10:20:21;;;;;;;;;5.25;5.25;;;;;19.45;38.64;101554.78;4975880;28;47583;-74
2023/12/03 10:22:50;;;;;;;;;6.50;6.50;;;;;19.44;38.31;101553.13;4975773;28;45413;-74
2023/12/03 10:25:29;;;;;;;;;7.75;7.00;;;;;19.42;38.34;101547.97;4976067;28;45542;-74
2023/12/03 10:27:55;;;;;;;;;7.75;6.50;;;;;19.34;38.45;101548.69;4976055;28;45338;-74
2023/12/03 10:30:21;;;;;;;;;6.75;6.50;;;;;19.43;38.19;101554.94;4975798;28;46058;-74
2023/12/03 10:32:47;;;;;;;;;6.25;6.00;;;;;19.40;38.04;101555.22;4975695;28;45360;-73
2023/12/03 10:35:12;;;;;;;;;8.00;8.00;;;;;19.39;38.36;101549.09;4975879;28;45476;-73
2023/12/03 10:37:38;;;;;;;;;7.00;6.00;;;;;19.41;38.68;101548.97;4975694;28;45388;-73
2023/12/03 10:40:04;;;;;;;;;8.00;5.67;;;;;19.42;38.42;101540.06;4975795;28;46047;-73
2023/12/03 10:42:33;;;;;;;;;8.75;6.50;;;;;19.33;38.66;101531.22;4975543;28;45408;-73
2023/12/03 10:45:14;;;;;;;;;8.25;6.50;;;;;19.42;38.46;101545.34;4975822;28;45391;-73
2023/12/03 10:47:40;;;;;;;;;6.00;6.00;;;;;19.45;38.48;101541.56;4975805;28;45484;-73
2023/12/03 10:50:08;;;;;;;;;6.50;6.50;;;;;19.44;38.63;101529.38;4976879;28;48224;-71
2023/12/03 10:52:36;;;;;;;;;8.75;7.00;;;;;19.44;38.50;101535.47;4978771;28;45420;-72
2023/12/03 10:55:02;;;;;;;;;4.75;4.75;;;;;19.39;39.01;101516.59;4979359;28;45381;-73
2023/12/03 10:57:29;;;;;;;;;7.25;6.75;;;;;19.43;38.51;101520.63;4979016;28;45437;-73
2023/12/03 11:00:02;;;;;;;;;6.00;5.00;;;;;19.43;38.91;101528.53;4978782;28;46255;-73
2023/12/03 11:02:37;;;;;;;;;6.75;6.25;;;;;19.38;38.59;101512.31;4978817;28;45441;-72
2023/12/03 11:05:05;;;;;;;;;6.50;6.50;;;;;19.41;38.61;101512.03;4977685;28;45298;-73
2023/12/03 11:07:32;;;;;;;;;6.25;5.00;;;;;19.43;38.68;101506.59;4978573;28;45540;-73
2023/12/03 11:09:58;;;;;;;;;6.75;6.50;;;;;19.32;38.40;101489.13;4978769;28;45247;-72